createdAt,value
2018-09-04T00:00:14.832Z,1010.56
2018-09-04T00:01:14.817Z,1010.57
2018-09-04T00:02:14.830Z,1010.55
2018-09-04T00:03:14.815Z,1010.51
2018-09-04T00:04:14.785Z,1010.53
2018-09-04T00:05:14.773Z,1010.53
2018-09-04T00:06:14.764Z,1010.51
2018-09-04T00:07:14.748Z,1010.51
2018-09-04T00:08:14.773Z,1010.53
2018-09-04T00:09:14.738Z,1010.51
2018-09-04T00:10:14.753Z,1010.57
2018-09-04T00:11:14.704Z,1010.51
2018-09-04T00:12:14.694Z,1010.50
2018-09-04T00:13:14.682Z,1010.52
2018-09-04T00:14:14.687Z,1010.50
2018-09-04T00:15:14.662Z,1010.50
2018-09-04T00:16:14.660Z,1010.53
2018-09-04T00:17:14.641Z,1010.55
2018-09-04T00:18:14.627Z,1010.56
2018-09-04T00:19:14.614Z,1010.53
2018-09-04T00:20:14.618Z,1010.50
2018-09-04T00:21:14.616Z,1010.51
2018-09-04T00:22:14.584Z,1010.50
2018-09-04T00:23:14.598Z,1010.52
2018-09-04T00:24:14.559Z,1010.50
2018-09-04T00:25:14.546Z,1010.50
2018-09-04T00:26:14.561Z,1010.47
2018-09-04T00:27:14.533Z,1010.42
2018-09-04T00:28:14.514Z,1010.46
2018-09-04T00:29:14.508Z,1010.46
2018-09-04T00:30:14.521Z,1010.45
2018-09-04T00:31:14.483Z,1010.47
2018-09-04T00:32:14.486Z,1010.42
2018-09-04T00:33:14.462Z,1010.49
2018-09-04T00:34:14.487Z,1010.48
2018-09-04T00:35:14.455Z,1010.44
2018-09-04T00:36:14.462Z,1010.48
2018-09-04T00:37:14.416Z,1010.45
2018-09-04T00:38:14.411Z,1010.45
2018-09-04T00:39:14.389Z,1010.43
2018-09-04T00:40:14.381Z,1010.45
2018-09-04T00:41:14.388Z,1010.47
2018-09-04T00:42:14.380Z,1010.47
2018-09-04T00:43:14.346Z,1010.51
2018-09-04T00:44:14.348Z,1010.55
2018-09-04T00:45:14.348Z,1010.51
2018-09-04T00:46:14.311Z,1010.52
2018-09-04T00:47:14.313Z,1010.53
2018-09-04T00:48:14.293Z,1010.50
2018-09-04T00:49:14.284Z,1010.55
2018-09-04T00:50:14.312Z,1010.54
2018-09-04T00:51:14.259Z,1010.54
2018-09-04T00:52:14.296Z,1010.52
2018-09-04T00:53:14.233Z,1010.53
2018-09-04T00:54:14.222Z,1010.50
2018-09-04T00:55:14.211Z,1010.51
2018-09-04T00:56:14.198Z,1010.54
2018-09-04T00:57:14.218Z,1010.56
2018-09-04T00:58:14.195Z,1010.55
2018-09-04T00:59:14.163Z,1010.59
2018-09-04T01:00:14.153Z,1010.52
2018-09-04T01:01:14.160Z,1010.57
2018-09-04T01:02:14.129Z,1010.59
2018-09-04T01:03:14.122Z,1010.55
2018-09-04T01:04:14.141Z,1010.54
2018-09-04T01:05:14.131Z,1010.51
2018-09-04T01:06:14.099Z,1010.55
2018-09-04T01:07:14.097Z,1010.51
2018-09-04T01:08:14.064Z,1010.52
2018-09-04T01:09:14.075Z,1010.51
2018-09-04T01:10:14.040Z,1010.53
2018-09-04T01:11:14.031Z,1010.54
2018-09-04T01:12:14.047Z,1010.53
2018-09-04T01:13:14.009Z,1010.59
2018-09-04T01:14:14.015Z,1010.59
2018-09-04T01:15:13.995Z,1010.57
2018-09-04T01:16:13.979Z,1010.53
2018-09-04T01:17:13.989Z,1010.56
2018-09-04T01:18:13.957Z,1010.54
2018-09-04T01:19:13.959Z,1010.56
2018-09-04T01:20:13.934Z,1010.53
2018-09-04T01:21:13.917Z,1010.53
2018-09-04T01:22:13.905Z,1010.54
2018-09-04T01:23:13.938Z,1010.56
2018-09-04T01:24:13.883Z,1010.56
2018-09-04T01:25:13.875Z,1010.56
2018-09-04T01:26:13.892Z,1010.58
2018-09-04T01:27:13.866Z,1010.55
2018-09-04T01:28:13.865Z,1010.53
2018-09-04T01:29:13.850Z,1010.53
2018-09-04T01:30:13.821Z,1010.52
2018-09-04T01:31:13.806Z,1010.53
2018-09-04T01:32:13.801Z,1010.53
2018-09-04T01:33:13.788Z,1010.53
2018-09-04T01:34:13.774Z,1010.55
2018-09-04T01:35:13.773Z,1010.52
2018-09-04T01:36:13.752Z,1010.55
2018-09-04T01:37:13.776Z,1010.53
2018-09-04T01:38:13.730Z,1010.57
2018-09-04T01:39:13.736Z,1010.50
2018-09-04T01:40:13.718Z,1010.53
2018-09-04T01:41:13.696Z,1010.51
2018-09-04T01:42:13.687Z,1010.51
2018-09-04T01:43:13.705Z,1010.53
2018-09-04T01:44:13.663Z,1010.53
2018-09-04T01:45:13.665Z,1010.52
2018-09-04T01:46:13.656Z,1010.50
2018-09-04T01:47:13.632Z,1010.47
2018-09-04T01:48:13.618Z,1010.48
2018-09-04T01:49:13.609Z,1010.47
2018-09-04T01:50:13.647Z,1010.47
2018-09-04T01:51:13.585Z,1010.47
2018-09-04T01:52:13.588Z,1010.50
2018-09-04T01:53:13.565Z,1010.46
2018-09-04T01:54:13.580Z,1010.45
2018-09-04T01:55:13.538Z,1010.41
2018-09-04T01:56:13.534Z,1010.38
2018-09-04T01:57:13.540Z,1010.35
2018-09-04T01:58:13.509Z,1010.35
2018-09-04T01:59:13.528Z,1010.38
2018-09-04T02:00:13.487Z,1010.41
2018-09-04T02:01:13.472Z,1010.36
2018-09-04T02:02:13.469Z,1010.32
2018-09-04T02:03:13.477Z,1010.34
2018-09-04T02:04:13.443Z,1010.33
2018-09-04T02:05:13.532Z,1010.33
2018-09-04T02:06:13.456Z,1010.38
2018-09-04T02:07:13.422Z,1010.33
2018-09-04T02:08:13.393Z,1010.34
2018-09-04T02:09:13.443Z,1010.35
2018-09-04T02:10:13.373Z,1010.35
2018-09-04T02:11:13.360Z,1010.37
2018-09-04T02:12:13.396Z,1010.40
2018-09-04T02:13:13.340Z,1010.41
2018-09-04T02:14:13.340Z,1010.37
2018-09-04T02:15:13.351Z,1010.35
2018-09-04T02:16:13.349Z,1010.33
2018-09-04T02:17:13.293Z,1010.28
2018-09-04T02:18:13.284Z,1010.35
2018-09-04T02:19:13.276Z,1010.30
2018-09-04T02:20:13.258Z,1010.28
2018-09-04T02:21:13.265Z,1010.28
2018-09-04T02:22:13.266Z,1010.28
2018-09-04T02:23:13.226Z,1010.24
2018-09-04T02:24:13.229Z,1010.25
2018-09-04T02:25:13.215Z,1010.22
2018-09-04T02:26:13.214Z,1010.21
2018-09-04T02:27:13.184Z,1010.16
2018-09-04T02:28:13.168Z,1010.16
2018-09-04T02:29:13.190Z,1010.11
2018-09-04T02:30:13.167Z,1010.10
2018-09-04T02:31:13.139Z,1010.07
2018-09-04T02:32:13.130Z,1010.10
2018-09-04T02:33:13.171Z,1010.08
2018-09-04T02:34:13.104Z,1010.06
2018-09-04T02:35:13.112Z,1010.05
2018-09-04T02:36:13.116Z,1010.08
2018-09-04T02:37:13.089Z,1010.09
2018-09-04T02:38:13.066Z,1010.06
2018-09-04T02:39:13.046Z,1010.07
2018-09-04T02:40:13.038Z,1010.12
2018-09-04T02:41:13.028Z,1010.14
2018-09-04T02:42:13.025Z,1010.13
2018-09-04T02:43:13.003Z,1010.12
2018-09-04T02:44:13.010Z,1010.14
2018-09-04T02:45:12.980Z,1010.18
2018-09-04T02:46:12.969Z,1010.23
2018-09-04T02:47:12.997Z,1010.24
2018-09-04T02:48:12.948Z,1010.27
2018-09-04T02:49:12.936Z,1010.26
2018-09-04T02:50:12.951Z,1010.23
2018-09-04T02:51:12.921Z,1010.22
2018-09-04T02:52:12.906Z,1010.25
2018-09-04T02:53:12.892Z,1010.24
2018-09-04T02:54:12.900Z,1010.26
2018-09-04T02:55:12.878Z,1010.24
2018-09-04T02:56:12.886Z,1010.24
2018-09-04T02:57:12.855Z,1010.22
2018-09-04T02:58:12.838Z,1010.24
2018-09-04T02:59:12.834Z,1010.23
2018-09-04T03:00:12.816Z,1010.23
2018-09-04T03:01:12.809Z,1010.26
2018-09-04T03:02:12.849Z,1010.28
2018-09-04T03:03:12.783Z,1010.25
2018-09-04T03:04:12.772Z,1010.30
2018-09-04T03:05:12.775Z,1010.30
2018-09-04T03:06:12.760Z,1010.29
2018-09-04T03:07:12.742Z,1010.30
2018-09-04T03:08:12.743Z,1010.35
2018-09-04T03:09:12.737Z,1010.32
2018-09-04T03:10:12.701Z,1010.33
2018-09-04T03:11:12.694Z,1010.35
2018-09-04T03:12:12.682Z,1010.33
2018-09-04T03:13:12.672Z,1010.36
2018-09-04T03:14:12.677Z,1010.35
2018-09-04T03:15:12.685Z,1010.31
2018-09-04T03:16:12.635Z,1010.30
2018-09-04T03:17:12.628Z,1010.28
2018-09-04T03:18:12.613Z,1010.27
2018-09-04T03:19:12.604Z,1010.25
2018-09-04T03:20:12.607Z,1010.25
2018-09-04T03:21:12.583Z,1010.24
2018-09-04T03:22:12.574Z,1010.24
2018-09-04T03:23:12.624Z,1010.25
2018-09-04T03:24:12.552Z,1010.24
2018-09-04T03:25:12.539Z,1010.25
2018-09-04T03:26:12.560Z,1010.25
2018-09-04T03:27:12.519Z,1010.26
2018-09-04T03:28:12.505Z,1010.25
2018-09-04T03:29:12.491Z,1010.23
2018-09-04T03:30:12.480Z,1010.27
2018-09-04T03:31:12.473Z,1010.23
2018-09-04T03:32:12.481Z,1010.25
2018-09-04T03:33:12.451Z,1010.25
2018-09-04T03:34:12.435Z,1010.26
2018-09-04T03:35:12.429Z,1010.31
2018-09-04T03:36:12.420Z,1010.26
2018-09-04T03:37:12.405Z,1010.30
2018-09-04T03:38:12.418Z,1010.27
2018-09-04T03:39:12.433Z,1010.28
2018-09-04T03:40:12.380Z,1010.22
2018-09-04T03:41:12.360Z,1010.25
2018-09-04T03:42:12.399Z,1010.19
2018-09-04T03:43:12.347Z,1010.22
2018-09-04T03:44:12.356Z,1010.23
2018-09-04T03:45:12.349Z,1010.23
2018-09-04T03:46:12.305Z,1010.24
2018-09-04T03:47:12.303Z,1010.24
2018-09-04T03:48:12.287Z,1010.24
2018-09-04T03:49:12.267Z,1010.23
2018-09-04T03:50:12.273Z,1010.25
2018-09-04T03:51:12.249Z,1010.28
2018-09-04T03:52:12.317Z,1010.29
2018-09-04T03:53:12.227Z,1010.23
2018-09-04T03:54:12.215Z,1010.26
2018-09-04T03:55:12.204Z,1010.26
2018-09-04T03:56:12.212Z,1010.21
2018-09-04T03:57:12.185Z,1010.24
2018-09-04T03:58:12.212Z,1010.24
2018-09-04T03:59:12.159Z,1010.24
2018-09-04T04:00:12.146Z,1010.25
2018-09-04T04:01:12.136Z,1010.27
2018-09-04T04:02:12.155Z,1010.24
2018-09-04T04:03:12.112Z,1010.24
2018-09-04T04:04:12.117Z,1010.24
2018-09-04T04:05:12.089Z,1010.20
2018-09-04T04:06:12.115Z,1010.20
2018-09-04T04:07:12.085Z,1010.19
2018-09-04T04:08:12.072Z,1010.19
2018-09-04T04:09:12.046Z,1010.19
2018-09-04T04:10:12.037Z,1010.20
2018-09-04T04:11:12.028Z,1010.18
2018-09-04T04:12:12.015Z,1010.15
2018-09-04T04:13:12.046Z,1010.17
2018-09-04T04:14:11.991Z,1010.16
2018-09-04T04:15:11.983Z,1010.17
2018-09-04T04:16:11.967Z,1010.16
2018-09-04T04:17:11.959Z,1010.16
2018-09-04T04:18:11.946Z,1010.21
2018-09-04T04:19:11.987Z,1010.17
2018-09-04T04:20:11.924Z,1010.20
2018-09-04T04:21:11.910Z,1010.21
2018-09-04T04:22:11.899Z,1010.20
2018-09-04T04:23:11.892Z,1010.21
2018-09-04T04:24:11.889Z,1010.22
2018-09-04T04:25:11.891Z,1010.19
2018-09-04T04:26:11.886Z,1010.19
2018-09-04T04:27:11.847Z,1010.15
2018-09-04T04:28:11.837Z,1010.17
2018-09-04T04:29:11.822Z,1010.17
2018-09-04T04:30:11.822Z,1010.14
2018-09-04T04:31:11.824Z,1010.14
2018-09-04T04:32:11.834Z,1010.16
2018-09-04T04:33:11.873Z,1010.16
2018-09-04T04:34:11.770Z,1010.12
2018-09-04T04:35:11.769Z,1010.14
2018-09-04T04:36:11.746Z,1010.13
2018-09-04T04:37:11.754Z,1010.11
2018-09-04T04:38:11.763Z,1010.16
2018-09-04T04:39:11.716Z,1010.16
2018-09-04T04:40:11.763Z,1010.17
2018-09-04T04:41:11.692Z,1010.19
2018-09-04T04:42:11.705Z,1010.19
2018-09-04T04:43:11.672Z,1010.21
2018-09-04T04:44:11.655Z,1010.22
2018-09-04T04:45:11.677Z,1010.23
2018-09-04T04:46:11.634Z,1010.25
2018-09-04T04:47:11.624Z,1010.24
2018-09-04T04:48:11.670Z,1010.25
2018-09-04T04:49:11.602Z,1010.23
2018-09-04T04:50:11.590Z,1010.24
2018-09-04T04:51:11.588Z,1010.23
2018-09-04T04:52:11.570Z,1010.20
2018-09-04T04:53:11.556Z,1010.23
2018-09-04T04:54:11.564Z,1010.21
2018-09-04T04:55:11.587Z,1010.23
2018-09-04T04:56:11.524Z,1010.20
2018-09-04T04:57:11.512Z,1010.21
2018-09-04T04:58:11.498Z,1010.25
2018-09-04T04:59:11.523Z,1010.28
2018-09-04T05:00:11.499Z,1010.29
2018-09-04T05:01:11.468Z,1010.33
2018-09-04T05:02:11.457Z,1010.31
2018-09-04T05:03:11.446Z,1010.33
2018-09-04T05:04:11.470Z,1010.36
2018-09-04T05:05:11.438Z,1010.39
2018-09-04T05:06:11.409Z,1010.37
2018-09-04T05:07:11.398Z,1010.37
2018-09-04T05:08:11.389Z,1010.36
2018-09-04T05:09:11.386Z,1010.39
2018-09-04T05:10:11.392Z,1010.42
2018-09-04T05:11:11.433Z,1010.35
2018-09-04T05:12:11.345Z,1010.39
2018-09-04T05:13:11.333Z,1010.42
2018-09-04T05:14:11.321Z,1010.42
2018-09-04T05:15:11.309Z,1010.44
2018-09-04T05:16:11.342Z,1010.43
2018-09-04T05:17:11.306Z,1010.46
2018-09-04T05:18:11.282Z,1010.47
2018-09-04T05:19:11.271Z,1010.43
2018-09-04T05:20:11.252Z,1010.45
2018-09-04T05:21:11.246Z,1010.48
2018-09-04T05:22:11.230Z,1010.50
2018-09-04T05:23:11.246Z,1010.55
2018-09-04T05:24:11.210Z,1010.55
2018-09-04T05:25:11.222Z,1010.52
2018-09-04T05:26:11.190Z,1010.57
2018-09-04T05:27:11.177Z,1010.58
2018-09-04T05:28:11.172Z,1010.56
2018-09-04T05:29:11.172Z,1010.60
2018-09-04T05:30:11.145Z,1010.64
2018-09-04T05:31:11.132Z,1010.65
2018-09-04T05:32:11.156Z,1010.65
2018-09-04T05:33:11.124Z,1010.67
2018-09-04T05:34:11.105Z,1010.68
2018-09-04T05:35:11.125Z,1010.67
2018-09-04T05:36:11.078Z,1010.69
2018-09-04T05:37:11.077Z,1010.72
2018-09-04T05:38:11.056Z,1010.71
2018-09-04T05:39:11.045Z,1010.74
2018-09-04T05:40:11.067Z,1010.72
2018-09-04T05:41:11.022Z,1010.73
2018-09-04T05:42:11.029Z,1010.71
2018-09-04T05:43:11.015Z,1010.72
2018-09-04T05:44:11.018Z,1010.72
2018-09-04T05:45:10.986Z,1010.72
2018-09-04T05:46:10.981Z,1010.69
2018-09-04T05:47:10.975Z,1010.75
2018-09-04T05:48:10.972Z,1010.74
2018-09-04T05:49:10.945Z,1010.76
2018-09-04T05:50:10.920Z,1010.76
2018-09-04T05:51:10.929Z,1010.78
2018-09-04T05:52:10.900Z,1010.81
2018-09-04T05:53:10.885Z,1010.75
2018-09-04T05:54:10.951Z,1010.79
2018-09-04T05:55:10.949Z,1010.77
2018-09-04T05:56:10.869Z,1010.76
2018-09-04T05:57:10.843Z,1010.78
2018-09-04T05:58:10.837Z,1010.75
2018-09-04T05:59:10.821Z,1010.75
2018-09-04T06:00:10.830Z,1010.79
2018-09-04T06:01:10.813Z,1010.75
2018-09-04T06:02:10.785Z,1010.74
2018-09-04T06:03:10.780Z,1010.77
2018-09-04T06:04:10.765Z,1010.74
2018-09-04T06:05:10.754Z,1010.73
2018-09-04T06:06:10.782Z,1010.72
2018-09-04T06:07:10.731Z,1010.77
2018-09-04T06:08:10.741Z,1010.75
2018-09-04T06:09:10.716Z,1010.79
2018-09-04T06:10:10.705Z,1010.81
2018-09-04T06:11:10.736Z,1010.82
2018-09-04T06:12:10.675Z,1010.83
2018-09-04T06:13:10.664Z,1010.85
2018-09-04T06:14:10.677Z,1010.87
2018-09-04T06:15:10.654Z,1010.87
2018-09-04T06:16:10.637Z,1010.86
2018-09-04T06:17:10.638Z,1010.85
2018-09-04T06:18:10.634Z,1010.85
2018-09-04T06:19:10.609Z,1010.84
2018-09-04T06:20:10.668Z,1010.86
2018-09-04T06:21:10.576Z,1010.86
2018-09-04T06:22:10.580Z,1010.85
2018-09-04T06:23:10.592Z,1010.92
2018-09-04T06:24:10.554Z,1010.90
2018-09-04T06:25:10.527Z,1010.88
2018-09-04T06:26:10.522Z,1010.89
2018-09-04T06:27:10.543Z,1010.91
2018-09-04T06:28:10.501Z,1010.92
2018-09-04T06:29:10.514Z,1010.92
2018-09-04T06:30:10.517Z,1010.86
2018-09-04T06:31:10.468Z,1010.90
2018-09-04T06:32:10.452Z,1010.93
2018-09-04T06:33:10.450Z,1010.91
2018-09-04T06:34:10.540Z,1010.97
2018-09-04T06:35:10.421Z,1010.98
2018-09-04T06:36:10.450Z,1011.00
2018-09-04T06:37:10.400Z,1011.01
2018-09-04T06:38:10.397Z,1011.02
2018-09-04T06:39:10.377Z,1010.99
2018-09-04T06:40:10.377Z,1010.97
2018-09-04T06:41:10.368Z,1010.97
2018-09-04T06:42:10.340Z,1011.02
2018-09-04T06:43:10.331Z,1010.99
2018-09-04T06:44:10.340Z,1011.02
2018-09-04T06:45:10.304Z,1010.99
2018-09-04T06:46:10.311Z,1011.03
2018-09-04T06:47:10.289Z,1011.01
2018-09-04T06:48:10.280Z,1011.02
2018-09-04T06:49:10.280Z,1011.05
2018-09-04T06:50:10.256Z,1011.07
2018-09-04T06:51:10.242Z,1011.07
2018-09-04T06:52:10.239Z,1011.06
2018-09-04T06:53:10.221Z,1011.08
2018-09-04T06:54:10.229Z,1011.05
2018-09-04T06:55:10.195Z,1011.06
2018-09-04T06:56:10.199Z,1011.12
2018-09-04T06:57:10.216Z,1011.10
2018-09-04T06:58:10.158Z,1011.13
2018-09-04T06:59:10.151Z,1011.15
2018-09-04T07:00:10.169Z,1011.14
2018-09-04T07:01:10.128Z,1011.19
2018-09-04T07:02:10.166Z,1011.13
2018-09-04T07:03:10.111Z,1011.13
2018-09-04T07:04:10.150Z,1011.14
2018-09-04T07:05:10.082Z,1011.10
2018-09-04T07:06:10.238Z,1011.09
2018-09-04T07:07:10.061Z,1011.05
2018-09-04T07:08:10.084Z,1011.07
2018-09-04T07:09:10.039Z,1011.07
2018-09-04T07:10:10.039Z,1011.05
2018-09-04T07:11:10.041Z,1011.08
2018-09-04T07:12:10.004Z,1011.10
2018-09-04T07:13:09.996Z,1011.10
2018-09-04T07:14:10.006Z,1011.08
2018-09-04T07:15:09.999Z,1011.05
2018-09-04T07:16:09.991Z,1011.11
2018-09-04T07:17:10.056Z,1011.12
2018-09-04T07:18:09.945Z,1011.10
2018-09-04T07:19:09.949Z,1011.14
2018-09-04T07:20:09.927Z,1011.12
2018-09-04T07:21:09.914Z,1011.17
2018-09-04T07:22:09.901Z,1011.15
2018-09-04T07:23:09.881Z,1011.16
2018-09-04T07:24:09.882Z,1011.17
2018-09-04T07:25:09.897Z,1011.18
2018-09-04T07:26:09.851Z,1011.17
2018-09-04T07:27:09.845Z,1011.21
2018-09-04T07:28:09.825Z,1011.23
2018-09-04T07:29:09.823Z,1011.24
2018-09-04T07:30:09.817Z,1011.22
2018-09-04T07:31:09.808Z,1011.21
2018-09-04T07:32:09.780Z,1011.23
2018-09-04T07:33:09.778Z,1011.22
2018-09-04T07:34:09.775Z,1011.19
2018-09-04T07:35:09.750Z,1011.23
2018-09-04T07:36:09.736Z,1011.18
2018-09-04T07:37:09.755Z,1011.24
2018-09-04T07:38:09.717Z,1011.23
2018-09-04T07:39:09.706Z,1011.23
2018-09-04T07:40:09.719Z,1011.28
2018-09-04T07:41:09.687Z,1011.28
2018-09-04T07:42:09.704Z,1011.24
2018-09-04T07:43:09.687Z,1011.26
2018-09-04T07:44:09.659Z,1011.27
2018-09-04T07:45:09.643Z,1011.32
2018-09-04T07:46:09.644Z,1011.30
2018-09-04T07:47:09.615Z,1011.27
2018-09-04T07:48:09.609Z,1011.24
2018-09-04T07:49:09.594Z,1011.24
2018-09-04T07:50:09.583Z,1011.20
2018-09-04T07:51:09.612Z,1011.21
2018-09-04T07:52:09.573Z,1011.25
2018-09-04T07:53:09.552Z,1011.26
2018-09-04T07:54:09.541Z,1011.28
2018-09-04T07:55:09.525Z,1011.25
2018-09-04T07:56:09.521Z,1011.26
2018-09-04T07:57:09.506Z,1011.21
2018-09-04T07:58:09.514Z,1011.25
2018-09-04T07:59:09.519Z,1011.26
2018-09-04T08:00:09.486Z,1011.22
2018-09-04T08:01:09.509Z,1011.22
2018-09-04T08:02:09.451Z,1011.22
2018-09-04T08:03:09.472Z,1011.21
2018-09-04T08:04:09.446Z,1011.19
2018-09-04T08:05:09.431Z,1011.23
2018-09-04T08:06:09.404Z,1011.25
2018-09-04T08:07:09.419Z,1011.24
2018-09-04T08:08:09.386Z,1011.24
2018-09-04T08:09:09.378Z,1011.21
2018-09-04T08:10:09.409Z,1011.23
2018-09-04T08:11:09.347Z,1011.18
2018-09-04T08:12:09.356Z,1011.20
2018-09-04T08:13:09.354Z,1011.18
2018-09-04T08:14:09.332Z,1011.21
2018-09-04T08:15:09.307Z,1011.18
2018-09-04T08:16:09.351Z,1011.19
2018-09-04T08:17:09.294Z,1011.13
2018-09-04T08:18:09.277Z,1011.16
2018-09-04T08:19:09.257Z,1011.11
2018-09-04T08:20:09.247Z,1011.12
2018-09-04T08:21:09.248Z,1011.15
2018-09-04T08:22:09.288Z,1011.14
2018-09-04T08:23:09.214Z,1011.13
2018-09-04T08:24:09.203Z,1011.19
2018-09-04T08:25:09.194Z,1011.22
2018-09-04T08:26:09.216Z,1011.20
2018-09-04T08:27:09.166Z,1011.24
2018-09-04T08:28:09.174Z,1011.26
2018-09-04T08:29:09.171Z,1011.28
2018-09-04T08:30:09.140Z,1011.30
2018-09-04T08:31:09.148Z,1011.31
2018-09-04T08:32:09.112Z,1011.30
2018-09-04T08:33:09.167Z,1011.30
2018-09-04T08:34:09.112Z,1011.29
2018-09-04T08:35:09.078Z,1011.27
2018-09-04T08:36:09.082Z,1011.32
2018-09-04T08:37:09.079Z,1011.30
2018-09-04T08:38:09.048Z,1011.29
2018-09-04T08:39:09.034Z,1011.29
2018-09-04T08:40:09.106Z,1011.24
2018-09-04T08:41:09.015Z,1011.26
2018-09-04T08:42:09.000Z,1011.23
2018-09-04T08:43:08.990Z,1011.29
2018-09-04T08:44:09.005Z,1011.33
2018-09-04T08:45:08.984Z,1011.31
2018-09-04T08:46:08.964Z,1011.34
2018-09-04T08:47:08.984Z,1011.33
2018-09-04T08:48:08.937Z,1011.37
2018-09-04T08:49:08.923Z,1011.38
2018-09-04T08:50:08.920Z,1011.34
2018-09-04T08:51:08.907Z,1011.33
2018-09-04T08:52:08.897Z,1011.35
2018-09-04T08:53:08.927Z,1011.26
2018-09-04T08:54:08.891Z,1011.30
2018-09-04T08:55:08.889Z,1011.28
2018-09-04T08:56:08.846Z,1011.29
2018-09-04T08:57:08.842Z,1011.28
2018-09-04T08:58:08.838Z,1011.32
2018-09-04T08:59:08.812Z,1011.27
2018-09-04T09:00:08.798Z,1011.30
2018-09-04T09:01:08.784Z,1011.31
2018-09-04T09:02:08.775Z,1011.30
2018-09-04T09:03:08.766Z,1011.28
2018-09-04T09:04:08.771Z,1011.32
2018-09-04T09:05:08.746Z,1011.33
2018-09-04T09:06:08.729Z,1011.31
2018-09-04T09:07:08.753Z,1011.30
2018-09-04T09:08:08.705Z,1011.28
2018-09-04T09:09:08.729Z,1011.33
2018-09-04T09:10:08.790Z,1011.28
2018-09-04T09:11:08.683Z,1011.32
2018-09-04T09:12:08.660Z,1011.32
2018-09-04T09:13:08.649Z,1011.30
2018-09-04T09:14:08.647Z,1011.33
2018-09-04T09:15:08.640Z,1011.30
2018-09-04T09:16:08.629Z,1011.35
2018-09-04T09:17:08.603Z,1011.35
2018-09-04T09:18:08.601Z,1011.33
2018-09-04T09:19:08.588Z,1011.33
2018-09-04T09:20:08.598Z,1011.33
2018-09-04T09:21:08.559Z,1011.35
2018-09-04T09:22:08.575Z,1011.35
2018-09-04T09:23:08.542Z,1011.27
2018-09-04T09:24:08.531Z,1011.26
2018-09-04T09:25:08.512Z,1011.25
2018-09-04T09:26:08.531Z,1011.23
2018-09-04T09:27:08.513Z,1011.19
2018-09-04T09:28:08.501Z,1011.20
2018-09-04T09:29:08.471Z,1011.19
2018-09-04T09:30:08.471Z,1011.23
2018-09-04T09:31:08.446Z,1011.23
2018-09-04T09:32:08.439Z,1011.18
2018-09-04T09:33:08.433Z,1011.21
2018-09-04T09:34:08.449Z,1011.18
2018-09-04T09:35:08.427Z,1011.17
2018-09-04T09:36:08.393Z,1011.16
2018-09-04T09:37:08.424Z,1011.18
2018-09-04T09:38:08.368Z,1011.15
2018-09-04T09:39:08.362Z,1011.18
2018-09-04T09:40:08.358Z,1011.19
2018-09-04T09:41:08.339Z,1011.15
2018-09-04T09:42:08.343Z,1011.15
2018-09-04T09:43:08.312Z,1011.13
2018-09-04T09:44:08.301Z,1011.13
2018-09-04T09:45:08.339Z,1011.14
2018-09-04T09:46:08.294Z,1011.16
2018-09-04T09:47:08.268Z,1011.13
2018-09-04T09:48:08.269Z,1011.15
2018-09-04T09:49:08.281Z,1011.11
2018-09-04T09:50:08.241Z,1011.14
2018-09-04T09:51:08.231Z,1011.11
2018-09-04T09:52:08.256Z,1011.11
2018-09-04T09:53:08.333Z,1011.10
2018-09-04T09:54:08.203Z,1011.10
2018-09-04T09:55:08.178Z,1011.10
2018-09-04T09:56:08.241Z,1011.10
2018-09-04T09:57:08.191Z,1011.12
2018-09-04T09:58:08.165Z,1011.11
2018-09-04T09:59:08.132Z,1011.16
2018-09-04T10:00:08.168Z,1011.14
2018-09-04T10:01:08.146Z,1011.13
2018-09-04T10:02:08.095Z,1011.09
2018-09-04T10:03:08.092Z,1011.10
2018-09-04T10:04:08.197Z,1011.09
2018-09-04T10:05:08.095Z,1011.09
2018-09-04T10:06:08.059Z,1011.06
2018-09-04T10:07:08.045Z,1011.06
2018-09-04T10:08:08.168Z,1011.07
2018-09-04T10:09:08.050Z,1011.07
2018-09-04T10:10:08.022Z,1011.01
2018-09-04T10:11:08.140Z,1011.04
2018-09-04T10:12:08.006Z,1011.06
2018-09-04T10:13:07.977Z,1011.02
2018-09-04T10:14:07.966Z,1011.07
2018-09-04T10:15:07.986Z,1011.04
2018-09-04T10:16:07.940Z,1011.05
2018-09-04T10:17:07.975Z,1011.00
2018-09-04T10:18:07.921Z,1011.08
2018-09-04T10:19:07.912Z,1011.07
2018-09-04T10:20:07.907Z,1011.06
2018-09-04T10:21:07.899Z,1011.08
2018-09-04T10:22:07.883Z,1011.05
2018-09-04T10:23:07.863Z,1011.07
2018-09-04T10:24:07.851Z,1011.10
2018-09-04T10:25:07.865Z,1011.07
2018-09-04T10:26:07.858Z,1011.06
2018-09-04T10:27:07.852Z,1011.03
2018-09-04T10:28:07.859Z,1011.06
2018-09-04T10:29:07.815Z,1011.05
2018-09-04T10:30:07.780Z,1011.03
2018-09-04T10:31:07.805Z,1011.08
2018-09-04T10:32:07.761Z,1011.10
2018-09-04T10:33:07.777Z,1011.08
2018-09-04T10:34:07.764Z,1011.06
2018-09-04T10:35:07.743Z,1011.04
2018-09-04T10:36:07.722Z,1011.05
2018-09-04T10:37:07.705Z,1011.06
2018-09-04T10:38:07.716Z,1011.08
2018-09-04T10:39:07.700Z,1011.02
2018-09-04T10:40:07.710Z,1011.01
2018-09-04T10:41:07.662Z,1011.02
2018-09-04T10:42:07.667Z,1011.00
2018-09-04T10:43:07.640Z,1011.07
2018-09-04T10:44:07.672Z,1011.01
2018-09-04T10:45:07.680Z,1011.01
2018-09-04T10:46:07.602Z,1011.02
2018-09-04T10:47:07.596Z,1011.02
2018-09-04T10:48:07.591Z,1011.00
2018-09-04T10:49:07.579Z,1011.00
2018-09-04T10:50:07.559Z,1010.99
2018-09-04T10:51:07.571Z,1011.01
2018-09-04T10:52:07.565Z,1011.02
2018-09-04T10:53:07.534Z,1011.00
2018-09-04T10:54:07.519Z,1010.97
2018-09-04T10:55:07.506Z,1010.96
2018-09-04T10:56:07.492Z,1010.96
2018-09-04T10:57:07.500Z,1010.95
2018-09-04T10:58:07.475Z,1010.91
2018-09-04T10:59:07.494Z,1010.96
2018-09-04T11:00:07.451Z,1010.92
2018-09-04T11:01:07.464Z,1010.91
2018-09-04T11:02:07.450Z,1010.93
2018-09-04T11:03:07.435Z,1010.89
2018-09-04T11:04:07.407Z,1010.86
2018-09-04T11:05:07.408Z,1010.88
2018-09-04T11:06:07.409Z,1010.89
2018-09-04T11:07:07.405Z,1010.87
2018-09-04T11:08:07.363Z,1010.88
2018-09-04T11:09:07.449Z,1010.88
2018-09-04T11:10:07.338Z,1010.93
2018-09-04T11:11:07.338Z,1010.86
2018-09-04T11:12:07.318Z,1010.88
2018-09-04T11:13:07.313Z,1010.88
2018-09-04T11:14:07.295Z,1010.92
2018-09-04T11:15:07.337Z,1010.90
2018-09-04T11:16:07.278Z,1010.87
2018-09-04T11:17:07.261Z,1010.91
2018-09-04T11:18:07.250Z,1010.89
2018-09-04T11:19:07.241Z,1010.87
2018-09-04T11:20:07.246Z,1010.88
2018-09-04T11:21:07.241Z,1010.82
2018-09-04T11:22:07.208Z,1010.81
2018-09-04T11:23:07.241Z,1010.80
2018-09-04T11:24:07.188Z,1010.79
2018-09-04T11:25:07.203Z,1010.81
2018-09-04T11:26:07.163Z,1010.82
2018-09-04T11:27:07.169Z,1010.82
2018-09-04T11:28:07.140Z,1010.82
2018-09-04T11:29:07.131Z,1010.79
2018-09-04T11:30:07.136Z,1010.81
2018-09-04T11:31:07.117Z,1010.79
2018-09-04T11:32:07.104Z,1010.84
2018-09-04T11:33:07.101Z,1010.83
2018-09-04T11:34:07.118Z,1010.84
2018-09-04T11:35:07.067Z,1010.83
2018-09-04T11:36:07.081Z,1010.81
2018-09-04T11:37:07.040Z,1010.80
2018-09-04T11:38:07.050Z,1010.78
2018-09-04T11:39:07.052Z,1010.84
2018-09-04T11:40:07.056Z,1010.84
2018-09-04T11:41:06.996Z,1010.81
2018-09-04T11:42:06.988Z,1010.82
2018-09-04T11:43:07.012Z,1010.88
2018-09-04T11:44:06.979Z,1010.83
2018-09-04T11:45:06.964Z,1010.83
2018-09-04T11:46:06.953Z,1010.85
2018-09-04T11:47:06.940Z,1010.83
2018-09-04T11:48:06.932Z,1010.83
2018-09-04T11:49:06.913Z,1010.79
2018-09-04T11:50:06.900Z,1010.82
2018-09-04T11:51:06.944Z,1010.83
2018-09-04T11:52:06.879Z,1010.83
2018-09-04T11:53:06.873Z,1010.81
2018-09-04T11:54:06.852Z,1010.78
2018-09-04T11:55:06.845Z,1010.78
2018-09-04T11:56:06.866Z,1010.76
2018-09-04T11:57:06.853Z,1010.75
2018-09-04T11:58:06.833Z,1010.75
2018-09-04T11:59:06.796Z,1010.75
2018-09-04T12:00:06.797Z,1010.75
2018-09-04T12:01:06.787Z,1010.76
2018-09-04T12:02:06.807Z,1010.79
2018-09-04T12:03:06.780Z,1010.79
2018-09-04T12:04:06.782Z,1010.75
2018-09-04T12:05:06.736Z,1010.75